Terminal Aerodrome Forecast
Issued by NWS

Home | Current Version | Previous Version | Text Only | Print | Product List | Glossary On
Versions: 1 2 3 4 5 6 7 8 9 10 11 12 13 14 15 16
000
FTUS42 KFFC 310000 AAA
TAFPDK
TAF AMD
KPDK 310054Z 3101/3124 VRB03KT P6SM VCSH SCT040 BKN100
      TEMPO 3101/3103 VRB15G25KT 3SM TSRA BKN040CB
     FM310300 00000KT P6SM FEW040 BKN100
     FM311000 00000KT 4SM BR FEW025 SCT250
     FM311400 23005KT P6SM SCT025 SCT250
     FM311800 24007KT P6SM SCT050 SCT150=

USA.gov is the U.S. government's official web portal to all federal, state and local government web resources and services.